createdAt,value
2019-04-06T00:01:50.423Z,59.43
2019-04-06T00:04:17.056Z,53.83
2019-04-06T00:06:43.824Z,56.37
2019-04-06T00:09:10.461Z,55.23
2019-04-06T00:11:37.092Z,57.00
2019-04-06T00:14:04.787Z,56.40
2019-04-06T00:16:32.314Z,57.20
2019-04-06T00:18:59.601Z,54.23
2019-04-06T00:21:27.052Z,52.33
2019-04-06T00:23:54.402Z,57.00
2019-04-06T00:26:22.127Z,55.50
2019-04-06T00:28:48.851Z,55.50
2019-04-06T00:31:41.044Z,56.03
2019-04-06T00:34:08.964Z,55.90
2019-04-06T00:36:35.586Z,56.80
2019-04-06T00:39:02.430Z,56.03
2019-04-06T00:41:30.871Z,55.63
2019-04-06T00:43:58.688Z,55.33
2019-04-06T00:46:25.363Z,59.63
2019-04-06T00:48:52.031Z,63.97
2019-04-06T00:51:18.658Z,60.63
2019-04-06T00:53:45.831Z,56.90
2019-04-06T00:56:13.108Z,58.73
2019-04-06T00:58:39.743Z,56.30
2019-04-06T01:01:06.847Z,56.67
2019-04-06T01:03:34.299Z,61.47
2019-04-06T01:06:01.556Z,59.23
2019-04-06T01:08:28.491Z,58.97
2019-04-06T01:10:55.693Z,56.90
2019-04-06T01:13:23.507Z,61.23
2019-04-06T01:15:50.454Z,61.23
2019-04-06T01:18:17.399Z,56.53
2019-04-06T01:20:45.470Z,53.77
2019-04-06T01:23:12.772Z,61.27
2019-04-06T01:25:39.846Z,57.53
2019-04-06T01:28:06.919Z,56.00
2019-04-06T01:30:33.706Z,57.60
2019-04-06T01:33:00.335Z,57.00
2019-04-06T01:35:26.955Z,55.90
2019-04-06T01:37:53.593Z,57.27
2019-04-06T01:40:20.643Z,59.07
2019-04-06T01:42:47.371Z,55.93
2019-04-06T01:45:15.193Z,58.70
2019-04-06T01:47:41.859Z,57.37
2019-04-06T01:50:08.547Z,58.33
2019-04-06T01:52:35.476Z,61.20
2019-04-06T01:55:02.167Z,57.90
2019-04-06T01:57:30.197Z,56.53
2019-04-06T01:59:56.924Z,59.67
2019-04-06T02:02:27.615Z,55.80
2019-04-06T02:04:54.516Z,53.17
2019-04-06T02:07:21.240Z,59.60
2019-04-06T02:09:47.977Z,54.93
2019-04-06T02:12:14.676Z,55.03
2019-04-06T02:14:41.315Z,60.20
2019-04-06T02:17:07.955Z,60.17
2019-04-06T02:19:35.623Z,61.60
2019-04-06T02:22:04.438Z,61.07
2019-04-06T02:24:32.060Z,59.70
2019-04-06T02:27:01.375Z,64.20
2019-04-06T02:29:28.324Z,58.67
2019-04-06T02:32:18.108Z,60.13
2019-04-06T02:35:02.902Z,59.17
2019-04-06T02:37:56.208Z,58.17
2019-04-06T02:40:33.183Z,56.67
2019-04-06T02:43:12.372Z,58.47
2019-04-06T02:45:39.106Z,59.30
2019-04-06T02:48:06.052Z,61.27
2019-04-06T02:50:32.736Z,59.40
2019-04-06T02:52:59.479Z,60.73
2019-04-06T02:55:26.166Z,63.50
2019-04-06T02:57:53.595Z,57.50
2019-04-06T03:00:20.211Z,56.67
2019-04-06T03:02:47.787Z,62.20
2019-04-06T03:05:14.750Z,56.73
2019-04-06T03:07:41.984Z,56.23
2019-04-06T03:10:09.152Z,60.13
2019-04-06T03:12:36.799Z,59.93
2019-04-06T03:15:03.886Z,60.70
2019-04-06T03:17:30.795Z,64.20
2019-04-06T03:19:57.741Z,59.23
2019-04-06T03:22:24.675Z,63.20
2019-04-06T03:24:52.038Z,60.40
2019-04-06T03:27:19.395Z,62.97
2019-04-06T03:29:57.336Z,62.97
2019-04-06T03:32:15.125Z,60.27
2019-04-06T03:34:42.326Z,62.10
2019-04-06T03:37:09.318Z,61.73
2019-04-06T03:39:36.000Z,59.90
2019-04-06T03:42:02.808Z,64.00
2019-04-06T03:44:29.697Z,63.23
2019-04-06T03:46:56.571Z,62.07
2019-04-06T03:49:24.711Z,63.43
2019-04-06T03:51:52.440Z,61.70
2019-04-06T03:54:19.075Z,57.17
2019-04-06T03:56:47.547Z,62.83
2019-04-06T03:59:14.175Z,61.47
2019-04-06T04:01:40.852Z,61.30
2019-04-06T04:04:07.560Z,61.70
2019-04-06T04:06:34.189Z,60.73
2019-04-06T04:09:00.824Z,61.67
2019-04-06T04:11:28.421Z,61.87
2019-04-06T04:13:56.160Z,57.27
2019-04-06T04:16:24.353Z,60.70
2019-04-06T04:18:51.583Z,57.80
2019-04-06T04:21:18.834Z,62.87
2019-04-06T04:23:46.083Z,63.37
2019-04-06T04:26:13.856Z,64.20
2019-04-06T04:28:42.767Z,66.73
2019-04-06T04:31:09.992Z,63.17
2019-04-06T04:33:36.964Z,64.47
2019-04-06T04:36:03.588Z,65.13
2019-04-06T04:38:30.217Z,65.83
2019-04-06T04:40:56.879Z,61.87
2019-04-06T04:43:25.702Z,60.40
2019-04-06T04:45:52.668Z,67.80
2019-04-06T04:48:19.467Z,62.50
2019-04-06T04:50:46.776Z,61.37
2019-04-06T04:53:14.052Z,63.53
2019-04-06T04:55:41.077Z,68.37
2019-04-06T04:58:08.635Z,68.80
2019-04-06T05:00:35.589Z,63.40
2019-04-06T05:03:02.380Z,71.20
2019-04-06T05:05:30.300Z,67.13
2019-04-06T05:07:57.338Z,66.03
2019-04-06T05:10:24.287Z,70.43
2019-04-06T05:12:51.534Z,70.27
2019-04-06T05:15:21.502Z,65.33
2019-04-06T05:17:48.156Z,67.63
2019-04-06T05:20:15.133Z,68.90
2019-04-06T05:22:42.106Z,67.50
2019-04-06T05:25:08.989Z,69.17
2019-04-06T05:27:37.195Z,67.90
2019-04-06T05:30:05.779Z,71.83
2019-04-06T05:32:32.448Z,68.30
2019-04-06T05:34:59.666Z,67.77
2019-04-06T05:37:27.641Z,66.83
2019-04-06T05:39:54.580Z,67.20
2019-04-06T05:42:21.391Z,64.80
2019-04-06T05:44:48.779Z,68.97
2019-04-06T05:47:16.045Z,66.73
2019-04-06T05:49:43.383Z,67.10
2019-04-06T05:52:10.427Z,68.23
2019-04-06T05:54:37.762Z,71.27
2019-04-06T05:57:05.243Z,68.00
2019-04-06T05:59:33.958Z,68.17
2019-04-06T06:02:00.976Z,68.07
2019-04-06T06:04:28.115Z,64.33
2019-04-06T06:06:55.683Z,66.07
2019-04-06T06:09:22.322Z,65.30
2019-04-06T06:11:48.971Z,67.20
2019-04-06T06:14:15.627Z,66.17
2019-04-06T06:16:42.459Z,67.10
2019-04-06T06:19:09.449Z,65.43
2019-04-06T06:21:36.659Z,69.93
2019-04-06T06:24:03.340Z,65.77
2019-04-06T06:26:30.735Z,65.07
2019-04-06T06:28:59.311Z,66.13
2019-04-06T06:31:26.279Z,63.70
2019-04-06T06:33:53.713Z,66.20
2019-04-06T06:36:20.965Z,65.00
2019-04-06T06:38:48.039Z,64.07
2019-04-06T06:41:14.730Z,63.40
2019-04-06T06:43:41.547Z,62.83
2019-04-06T06:46:08.169Z,63.03
2019-04-06T06:48:35.204Z,64.97
2019-04-06T06:51:01.896Z,64.17
2019-04-06T06:53:28.622Z,66.33
2019-04-06T06:55:55.425Z,65.37
2019-04-06T06:58:25.614Z,66.90
2019-04-06T07:00:52.259Z,64.57
2019-04-06T07:03:19.203Z,62.93
2019-04-06T07:05:46.091Z,66.70
2019-04-06T07:08:12.763Z,61.53
2019-04-06T07:10:39.391Z,62.17
2019-04-06T07:13:06.281Z,63.10
2019-04-06T07:15:33.143Z,61.17
2019-04-06T07:18:00.011Z,63.17
2019-04-06T07:20:26.980Z,61.83
2019-04-06T07:22:53.967Z,60.10
2019-04-06T07:25:20.611Z,59.37
2019-04-06T07:27:47.322Z,62.83
2019-04-06T07:30:14.240Z,60.33
2019-04-06T07:32:40.984Z,56.00
2019-04-06T07:35:07.777Z,57.80
2019-04-06T07:37:35.915Z,56.93
2019-04-06T07:40:03.320Z,58.10
2019-04-06T07:42:30.159Z,53.60
2019-04-06T07:44:56.795Z,53.50
2019-04-06T07:47:23.431Z,55.50
2019-04-06T07:49:50.107Z,53.87
2019-04-06T07:52:16.731Z,52.67
2019-04-06T07:54:43.650Z,49.90
2019-04-06T07:57:10.408Z,53.27
2019-04-06T07:59:37.151Z,50.93
2019-04-06T08:02:04.085Z,50.27
2019-04-06T08:04:31.267Z,50.00
2019-04-06T08:06:58.065Z,51.27
2019-04-06T08:09:24.679Z,51.10
2019-04-06T08:11:51.452Z,50.17
2019-04-06T08:14:18.304Z,53.40
2019-04-06T08:16:45.359Z,50.47
2019-04-06T08:19:13.207Z,48.70
2019-04-06T08:21:41.622Z,48.97
2019-04-06T08:24:08.255Z,47.47
2019-04-06T08:26:36.131Z,49.97
2019-04-06T08:29:02.875Z,48.03
2019-04-06T08:31:29.615Z,47.77
2019-04-06T08:33:56.674Z,52.40
2019-04-06T08:36:23.617Z,50.13
2019-04-06T08:38:52.402Z,50.63
2019-04-06T08:41:20.267Z,53.10
2019-04-06T08:43:47.216Z,48.80
2019-04-06T08:46:13.855Z,49.00
2019-04-06T08:48:40.795Z,49.10
2019-04-06T08:51:07.846Z,50.70
2019-04-06T08:53:35.143Z,47.63
2019-04-06T08:56:02.451Z,45.13
2019-04-06T08:58:29.394Z,48.30
2019-04-06T09:00:56.182Z,47.73
2019-04-06T09:03:22.803Z,45.30
2019-04-06T09:05:49.511Z,48.13
2019-04-06T09:08:16.144Z,47.47
2019-04-06T09:10:43.195Z,46.43
2019-04-06T09:13:11.164Z,46.83
2019-04-06T09:15:38.425Z,44.83
2019-04-06T09:18:05.783Z,46.43
2019-04-06T09:20:33.123Z,47.37
2019-04-06T09:22:59.848Z,46.27
2019-04-06T09:25:27.219Z,47.97
2019-04-06T09:27:54.165Z,45.03
2019-04-06T09:30:21.107Z,43.67
2019-04-06T09:32:48.084Z,45.47
2019-04-06T09:35:15.300Z,45.37
2019-04-06T09:37:42.253Z,45.37
2019-04-06T09:40:08.866Z,44.63
2019-04-06T09:42:35.466Z,45.73
2019-04-06T09:45:24.998Z,47.00
2019-04-06T09:48:08.265Z,43.57
2019-04-06T09:50:53.744Z,45.07
2019-04-06T09:53:38.980Z,44.13
2019-04-06T09:56:17.163Z,45.87
2019-04-06T09:58:51.411Z,43.43
2019-04-06T10:01:41.187Z,47.33
2019-04-06T10:04:26.626Z,44.83
2019-04-06T10:07:11.185Z,45.20
2019-04-06T10:09:59.887Z,45.00
2019-04-06T10:12:42.139Z,45.47
2019-04-06T10:15:46.430Z,47.33
2019-04-06T10:18:34.865Z,44.47
2019-04-06T10:21:31.836Z,45.97
2019-04-06T10:24:05.395Z,47.37
2019-04-06T10:26:45.468Z,44.63
2019-04-06T10:29:32.961Z,46.37
2019-04-06T10:32:18.555Z,47.90
2019-04-06T10:35:03.759Z,47.10
2019-04-06T10:37:50.481Z,47.37
2019-04-06T10:40:39.487Z,49.50
2019-04-06T10:43:24.467Z,48.00
2019-04-06T10:46:02.407Z,45.90
2019-04-06T10:48:43.491Z,45.37
2019-04-06T10:51:31.492Z,43.90
2019-04-06T10:54:17.045Z,46.90
2019-04-06T10:57:04.655Z,43.47
2019-04-06T11:00:01.011Z,44.47
2019-04-06T11:02:39.124Z,43.80
2019-04-06T11:05:15.517Z,42.83
2019-04-06T11:07:53.080Z,44.43
2019-04-06T11:10:46.063Z,41.53
2019-04-06T11:13:31.223Z,45.63
2019-04-06T11:16:29.634Z,40.53
2019-04-06T11:19:07.993Z,43.93
2019-04-06T11:21:49.071Z,42.10
2019-04-06T11:24:45.059Z,44.40
2019-04-06T11:27:29.802Z,41.97
2019-04-06T11:30:22.461Z,44.80
2019-04-06T11:33:00.541Z,42.80
2019-04-06T11:35:49.807Z,43.00
2019-04-06T11:38:26.688Z,42.60
2019-04-06T11:41:14.417Z,43.90
2019-04-06T11:43:49.803Z,42.07
2019-04-06T11:46:46.797Z,43.43
2019-04-06T11:49:33.808Z,42.87
2019-04-06T11:52:24.043Z,42.30
2019-04-06T11:55:01.599Z,45.10
2019-04-06T11:57:44.583Z,41.90
2019-04-06T12:00:36.971Z,43.13
2019-04-06T12:03:21.424Z,42.23
2019-04-06T12:06:19.661Z,43.53
2019-04-06T12:08:53.919Z,43.67
2019-04-06T12:11:46.202Z,44.13
2019-04-06T12:14:27.448Z,42.20
2019-04-06T12:17:29.754Z,43.63
2019-04-06T12:20:16.020Z,44.00
2019-04-06T12:23:02.416Z,45.00
2019-04-06T12:25:39.816Z,43.60
2019-04-06T12:28:21.364Z,44.37
2019-04-06T12:31:19.435Z,44.90
2019-04-06T12:34:01.061Z,43.97
2019-04-06T12:36:47.351Z,45.10
2019-04-06T12:39:34.112Z,42.67
2019-04-06T12:42:20.861Z,46.23
2019-04-06T12:45:06.039Z,43.17
2019-04-06T12:47:50.040Z,43.00
2019-04-06T12:50:45.012Z,44.27
2019-04-06T12:53:31.759Z,43.90
2019-04-06T12:56:22.057Z,43.43
2019-04-06T12:59:09.887Z,43.13
2019-04-06T13:01:55.707Z,44.90
2019-04-06T13:04:40.713Z,43.77
2019-04-06T13:07:16.935Z,45.50
2019-04-06T13:10:07.410Z,44.43
2019-04-06T13:12:57.687Z,43.03
2019-04-06T13:15:36.756Z,45.33
2019-04-06T13:18:21.679Z,45.57
2019-04-06T13:21:18.021Z,47.23
2019-04-06T13:24:07.003Z,45.43
2019-04-06T13:26:51.898Z,45.50
2019-04-06T13:29:41.160Z,45.83
2019-04-06T13:32:33.307Z,47.87
2019-04-06T13:35:07.235Z,44.60
2019-04-06T13:37:56.460Z,46.03
2019-04-06T13:40:41.835Z,46.07
2019-04-06T13:43:35.296Z,44.50
2019-04-06T13:46:24.242Z,44.60
2019-04-06T13:49:04.431Z,45.20
2019-04-06T13:51:50.570Z,45.90
2019-04-06T13:54:35.455Z,45.00
2019-04-06T13:57:26.853Z,44.93
2019-04-06T14:00:11.412Z,46.00
2019-04-06T14:03:00.654Z,45.90
2019-04-06T14:05:47.153Z,46.47
2019-04-06T14:08:30.647Z,42.33
2019-04-06T14:11:16.776Z,43.77
2019-04-06T14:13:57.927Z,41.63
2019-04-06T14:16:47.703Z,47.20
2019-04-06T14:19:29.598Z,43.87
2019-04-06T14:22:18.870Z,44.60
2019-04-06T14:25:07.043Z,45.20
2019-04-06T14:27:44.919Z,43.90
2019-04-06T14:30:28.252Z,43.00
2019-04-06T14:33:20.970Z,45.80
2019-04-06T14:36:17.240Z,40.90
2019-04-06T14:39:06.421Z,42.60
2019-04-06T14:42:00.577Z,41.80
2019-04-06T14:44:34.338Z,41.27
2019-04-06T14:47:19.563Z,38.77
2019-04-06T14:49:59.001Z,41.00
2019-04-06T14:52:58.258Z,37.70
2019-04-06T14:56:03.574Z,37.10
2019-04-06T14:58:59.885Z,38.17
2019-04-06T15:01:45.381Z,41.77
2019-04-06T15:04:32.610Z,38.30
2019-04-06T15:07:23.592Z,38.83
2019-04-06T15:10:18.824Z,38.60
2019-04-06T15:13:07.990Z,35.63
2019-04-06T15:15:46.055Z,38.17
2019-04-06T15:18:19.746Z,35.53
2019-04-06T15:20:52.954Z,36.60
2019-04-06T15:23:39.359Z,36.43
2019-04-06T15:26:14.286Z,35.97
2019-04-06T15:29:04.172Z,36.40
2019-04-06T15:31:51.320Z,34.47
2019-04-06T15:34:35.335Z,35.97
2019-04-06T15:37:21.165Z,34.63
2019-04-06T15:40:10.495Z,35.53
2019-04-06T15:43:02.367Z,36.63
2019-04-06T15:45:48.520Z,36.70
2019-04-06T15:48:37.484Z,37.77
2019-04-06T15:51:15.215Z,38.27
2019-04-06T15:54:07.771Z,38.03
2019-04-06T15:56:55.447Z,36.93
2019-04-06T15:59:51.131Z,39.20
2019-04-06T16:02:37.220Z,38.70
2019-04-06T16:05:27.895Z,35.90
2019-04-06T16:08:19.898Z,37.00
2019-04-06T16:11:08.911Z,35.77
2019-04-06T16:14:01.602Z,35.57
2019-04-06T16:16:38.959Z,35.00
2019-04-06T16:19:14.385Z,37.67
2019-04-06T16:21:54.891Z,36.37
2019-04-06T16:24:44.224Z,36.40
2019-04-06T16:27:51.558Z,38.60
2019-04-06T16:30:35.146Z,35.67
2019-04-06T16:33:27.616Z,35.30
2019-04-06T16:36:20.157Z,37.03
2019-04-06T16:39:06.690Z,37.07
2019-04-06T16:41:41.159Z,36.90
2019-04-06T16:44:30.316Z,36.43
2019-04-06T16:47:22.551Z,37.20
2019-04-06T16:50:09.115Z,38.17
2019-04-06T16:52:56.676Z,40.30
2019-04-06T16:55:49.952Z,38.00
2019-04-06T16:58:49.092Z,44.40
2019-04-06T17:01:27.665Z,41.10
2019-04-06T17:04:03.838Z,39.73
2019-04-06T17:06:53.858Z,42.73
2019-04-06T17:09:45.803Z,41.83
2019-04-06T17:12:29.281Z,43.53
2019-04-06T17:15:34.388Z,44.95
2019-04-06T17:18:30.298Z,49.07
2019-04-06T17:21:20.698Z,43.30
2019-04-06T17:24:07.281Z,43.23
2019-04-06T17:27:00.326Z,39.93
2019-04-06T17:29:38.767Z,40.00
2019-04-06T17:32:09.767Z,38.97
2019-04-06T17:35:01.989Z,38.93
2019-04-06T17:37:34.609Z,38.67
2019-04-06T17:40:08.431Z,40.70
2019-04-06T17:42:54.399Z,39.53
2019-04-06T17:45:49.327Z,40.53
2019-04-06T17:48:35.455Z,39.50
2019-04-06T17:51:21.971Z,38.97
2019-04-06T17:53:58.110Z,39.87
2019-04-06T17:56:56.644Z,41.03
2019-04-06T17:59:51.693Z,42.30
2019-04-06T18:02:51.006Z,38.30
2019-04-06T18:05:36.107Z,38.27
2019-04-06T18:08:34.671Z,39.37
2019-04-06T18:11:39.087Z,39.33
2019-04-06T18:14:06.075Z,40.10
2019-04-06T18:16:34.726Z,39.73
2019-04-06T18:19:02.220Z,38.93
2019-04-06T18:21:30.109Z,40.20
2019-04-06T18:23:57.731Z,41.13
2019-04-06T18:26:24.551Z,38.73
2019-04-06T18:28:51.965Z,38.77
2019-04-06T18:31:42.219Z,41.80
2019-04-06T18:34:09.272Z,39.90
2019-04-06T18:36:55.615Z,42.47
2019-04-06T18:39:22.944Z,40.20
2019-04-06T18:41:50.332Z,39.87
2019-04-06T18:44:17.579Z,39.47
2019-04-06T18:46:44.331Z,41.13
2019-04-06T18:49:13.307Z,38.97
2019-04-06T18:51:40.163Z,38.57
2019-04-06T18:54:12.515Z,41.33
2019-04-06T18:56:39.495Z,41.13
2019-04-06T18:59:06.511Z,41.57
2019-04-06T19:01:33.646Z,38.10
2019-04-06T19:04:00.327Z,40.17
2019-04-06T19:06:27.349Z,40.57
2019-04-06T19:08:54.099Z,42.23
2019-04-06T19:11:20.857Z,40.97
2019-04-06T19:13:47.819Z,44.50
2019-04-06T19:16:17.051Z,39.93
2019-04-06T19:18:43.112Z,43.17
2019-04-06T19:21:09.809Z,44.47
2019-04-06T19:23:36.480Z,43.57
2019-04-06T19:26:04.960Z,42.20
2019-04-06T19:28:32.289Z,43.27
2019-04-06T19:31:00.205Z,41.70
2019-04-06T19:33:27.293Z,41.90
2019-04-06T19:35:57.491Z,43.03
2019-04-06T19:38:24.786Z,43.10
2019-04-06T19:40:51.855Z,40.20
2019-04-06T19:43:18.650Z,43.40
2019-04-06T19:45:46.210Z,43.90
2019-04-06T19:48:13.203Z,42.60
2019-04-06T19:50:40.789Z,43.77
2019-04-06T19:53:07.886Z,42.17
2019-04-06T19:55:35.036Z,46.30
2019-04-06T19:58:02.461Z,43.13
2019-04-06T20:00:30.142Z,44.30
2019-04-06T20:02:57.832Z,45.00
2019-04-06T20:05:25.643Z,42.60
2019-04-06T20:07:52.415Z,45.77
2019-04-06T20:10:19.443Z,44.63
2019-04-06T20:12:46.308Z,42.67
2019-04-06T20:15:15.433Z,47.03
2019-04-06T20:17:43.435Z,40.07
2019-04-06T20:20:10.321Z,45.00
2019-04-06T20:22:38.150Z,46.93
2019-04-06T20:25:05.654Z,44.07
2019-04-06T20:27:32.280Z,44.27
2019-04-06T20:29:59.259Z,46.07
2019-04-06T20:32:25.897Z,45.50
2019-04-06T20:34:52.624Z,45.70
2019-04-06T20:37:21.615Z,47.20
2019-04-06T20:39:49.121Z,46.30
2019-04-06T20:42:16.658Z,46.67
2019-04-06T20:44:43.627Z,45.47
2019-04-06T20:47:11.374Z,46.57
2019-04-06T20:49:39.683Z,46.50
2019-04-06T20:52:07.150Z,46.57
2019-04-06T20:54:33.998Z,48.13
2019-04-06T20:57:00.731Z,44.43
2019-04-06T20:59:27.421Z,44.93
2019-04-06T21:01:54.324Z,49.43
2019-04-06T21:04:21.596Z,44.70
2019-04-06T21:06:49.267Z,43.07
2019-04-06T21:09:16.494Z,48.37
2019-04-06T21:11:43.743Z,47.77
2019-04-06T21:14:10.432Z,51.00
2019-04-06T21:16:37.944Z,45.37
2019-04-06T21:19:07.239Z,49.97
2019-04-06T21:21:34.696Z,49.47
2019-04-06T21:24:02.379Z,49.13
2019-04-06T21:26:29.039Z,48.60
2019-04-06T21:28:56.633Z,49.70
2019-04-06T21:31:23.416Z,49.10
2019-04-06T21:33:52.498Z,49.17
2019-04-06T21:36:19.312Z,50.30
2019-04-06T21:38:46.083Z,49.00
2019-04-06T21:41:12.745Z,45.73
2019-04-06T21:43:39.379Z,51.00
2019-04-06T21:46:06.716Z,50.27
2019-04-06T21:48:35.119Z,48.93
2019-04-06T21:51:02.925Z,48.83
2019-04-06T21:53:29.747Z,53.03
2019-04-06T21:56:03.426Z,51.13
2019-04-06T21:58:27.049Z,49.93
2019-04-06T22:00:56.651Z,52.80
2019-04-06T22:03:23.851Z,48.00
2019-04-06T22:05:50.967Z,49.00
2019-04-06T22:08:18.747Z,48.23
2019-04-06T22:10:45.923Z,52.00
2019-04-06T22:13:13.195Z,49.57
2019-04-06T22:15:40.396Z,51.43
2019-04-06T22:18:07.810Z,51.03
2019-04-06T22:20:35.541Z,55.33
2019-04-06T22:23:02.848Z,51.73
2019-04-06T22:25:30.004Z,51.37
2019-04-06T22:27:57.072Z,51.87
2019-04-06T22:30:23.724Z,49.33
2019-04-06T22:32:50.381Z,50.90
2019-04-06T22:35:18.319Z,51.70
2019-04-06T22:37:45.083Z,50.77
2019-04-06T22:40:13.058Z,50.27
2019-04-06T22:42:39.872Z,51.07
2019-04-06T22:45:09.230Z,52.30
2019-04-06T22:47:36.295Z,50.87
2019-04-06T22:50:04.435Z,53.63
2019-04-06T22:52:31.651Z,49.33
2019-04-06T22:54:58.384Z,53.40
2019-04-06T22:57:25.091Z,51.40
2019-04-06T22:59:51.787Z,51.97
2019-04-06T23:02:18.396Z,52.50
2019-04-06T23:05:05.339Z,50.50
2019-04-06T23:07:33.639Z,53.43
2019-04-06T23:10:02.862Z,50.10
2019-04-06T23:12:30.481Z,51.43
2019-04-06T23:14:57.412Z,49.23
2019-04-06T23:17:24.060Z,49.03
2019-04-06T23:19:52.538Z,51.00
2019-04-06T23:22:19.560Z,51.10
2019-04-06T23:24:46.837Z,53.00
2019-04-06T23:27:13.735Z,49.87
2019-04-06T23:29:40.427Z,52.03
2019-04-06T23:32:08.868Z,53.10
2019-04-06T23:34:37.953Z,55.67
2019-04-06T23:37:04.767Z,54.83
2019-04-06T23:39:32.095Z,55.00
2019-04-06T23:41:58.962Z,54.40
2019-04-06T23:44:26.878Z,55.90
2019-04-06T23:46:55.362Z,57.73
2019-04-06T23:49:22.420Z,58.47
2019-04-06T23:51:49.288Z,56.93
2019-04-06T23:54:16.443Z,58.37
2019-04-06T23:56:43.730Z,59.73
2019-04-06T23:59:12.081Z,63.17
